sensor_id;sensor_type;location;lat;lon;timestamp;P1;P2;P0
73517;PMS5003;61766;60.318;25.044;2023-10-19T00:01:50;2;2;
73517;PMS5003;61766;60.318;25.044;2023-10-19T00:04:15;2;2;
73517;PMS5003;61766;60.318;25.044;2023-10-19T00:06:40;1;1;
73517;PMS5003;61766;60.318;25.044;2023-10-19T00:09:05;1;1;
73517;PMS5003;61766;60.318;25.044;2023-10-19T00:11:30;2;2;
73517;PMS5003;61766;60.318;25.044;2023-10-19T00:13:55;2;2;
73517;PMS5003;61766;60.318;25.044;2023-10-19T00:16:21;6;4;
73517;PMS5003;61766;60.318;25.044;2023-10-19T00:18:46;2;2;
73517;PMS5003;61766;60.318;25.044;2023-10-19T00:21:11;2;1;
73517;PMS5003;61766;60.318;25.044;2023-10-19T00:23:37;3;2;
73517;PMS5003;61766;60.318;25.044;2023-10-19T00:26:03;1;1;
73517;PMS5003;61766;60.318;25.044;2023-10-19T00:28:28;1;1;
73517;PMS5003;61766;60.318;25.044;2023-10-19T00:30:53;1;1;
73517;PMS5003;61766;60.318;25.044;2023-10-19T00:33:19;1;1;
73517;PMS5003;61766;60.318;25.044;2023-10-19T00:35:44;1;1;
73517;PMS5003;61766;60.318;25.044;2023-10-19T00:38:09;3;3;
73517;PMS5003;61766;60.318;25.044;2023-10-19T00:40:34;1;1;
73517;PMS5003;61766;60.318;25.044;2023-10-19T00:43:02;2;2;
73517;PMS5003;61766;60.318;25.044;2023-10-19T00:45:24;1;1;
73517;PMS5003;61766;60.318;25.044;2023-10-19T00:47:50;2;2;
73517;PMS5003;61766;60.318;25.044;2023-10-19T00:50:15;2;2;
73517;PMS5003;61766;60.318;25.044;2023-10-19T00:52:40;3;2;
73517;PMS5003;61766;60.318;25.044;2023-10-19T00:55:05;1;1;
73517;PMS5003;61766;60.318;25.044;2023-10-19T00:57:30;2;2;
73517;PMS5003;61766;60.318;25.044;2023-10-19T00:59:56;1;1;
73517;PMS5003;61766;60.318;25.044;2023-10-19T01:02:21;1;1;
73517;PMS5003;61766;60.318;25.044;2023-10-19T01:04:46;2;1;
73517;PMS5003;61766;60.318;25.044;2023-10-19T01:07:11;1;1;
73517;PMS5003;61766;60.318;25.044;2023-10-19T01:09:36;1;1;
73517;PMS5003;61766;60.318;25.044;2023-10-19T01:12:02;2;1;
73517;PMS5003;61766;60.318;25.044;2023-10-19T01:14:27;2;2;
73517;PMS5003;61766;60.318;25.044;2023-10-19T01:16:52;2;2;
73517;PMS5003;61766;60.318;25.044;2023-10-19T01:19:17;2;1;
73517;PMS5003;61766;60.318;25.044;2023-10-19T01:21:42;2;2;
73517;PMS5003;61766;60.318;25.044;2023-10-19T01:24:08;2;1;
73517;PMS5003;61766;60.318;25.044;2023-10-19T01:26:33;0;0;
73517;PMS5003;61766;60.318;25.044;2023-10-19T01:28:58;1;1;
73517;PMS5003;61766;60.318;25.044;2023-10-19T01:31:23;1;1;
73517;PMS5003;61766;60.318;25.044;2023-10-19T01:33:48;2;2;
73517;PMS5003;61766;60.318;25.044;2023-10-19T01:36:14;1;1;
73517;PMS5003;61766;60.318;25.044;2023-10-19T01:38:39;1;1;
73517;PMS5003;61766;60.318;25.044;2023-10-19T01:41:04;2;2;
73517;PMS5003;61766;60.318;25.044;2023-10-19T01:43:29;2;2;
73517;PMS5003;61766;60.318;25.044;2023-10-19T01:45:54;1;1;
73517;PMS5003;61766;60.318;25.044;2023-10-19T01:48:20;2;1;
73517;PMS5003;61766;60.318;25.044;2023-10-19T01:50:45;2;2;
73517;PMS5003;61766;60.318;25.044;2023-10-19T01:53:10;3;3;
73517;PMS5003;61766;60.318;25.044;2023-10-19T01:55:36;1;1;
73517;PMS5003;61766;60.318;25.044;2023-10-19T01:58:00;2;2;
73517;PMS5003;61766;60.318;25.044;2023-10-19T02:00:25;1;1;
73517;PMS5003;61766;60.318;25.044;2023-10-19T02:02:51;1;1;
73517;PMS5003;61766;60.318;25.044;2023-10-19T02:05:16;1;1;
73517;PMS5003;61766;60.318;25.044;2023-10-19T02:07:41;1;1;
73517;PMS5003;61766;60.318;25.044;2023-10-19T02:10:06;2;2;
73517;PMS5003;61766;60.318;25.044;2023-10-19T02:12:31;1;1;
73517;PMS5003;61766;60.318;25.044;2023-10-19T02:14:57;2;2;
73517;PMS5003;61766;60.318;25.044;2023-10-19T02:17:22;1;1;
73517;PMS5003;61766;60.318;25.044;2023-10-19T02:19:47;3;2;
73517;PMS5003;61766;60.318;25.044;2023-10-19T02:22:12;1;1;
73517;PMS5003;61766;60.318;25.044;2023-10-19T02:24:37;1;1;
73517;PMS5003;61766;60.318;25.044;2023-10-19T02:27:03;2;2;
73517;PMS5003;61766;60.318;25.044;2023-10-19T02:29:28;1;1;
73517;PMS5003;61766;60.318;25.044;2023-10-19T02:31:53;1;1;
73517;PMS5003;61766;60.318;25.044;2023-10-19T02:34:18;3;2;
73517;PMS5003;61766;60.318;25.044;2023-10-19T02:36:44;1;1;
73517;PMS5003;61766;60.318;25.044;2023-10-19T02:39:09;1;1;
73517;PMS5003;61766;60.318;25.044;2023-10-19T02:41:34;1;1;
73517;PMS5003;61766;60.318;25.044;2023-10-19T02:43:59;1;1;
73517;PMS5003;61766;60.318;25.044;2023-10-19T02:46:24;3;2;
73517;PMS5003;61766;60.318;25.044;2023-10-19T02:48:49;0;0;
73517;PMS5003;61766;60.318;25.044;2023-10-19T02:51:15;2;2;
73517;PMS5003;61766;60.318;25.044;2023-10-19T02:53:40;3;2;
73517;PMS5003;61766;60.318;25.044;2023-10-19T02:56:10;1;1;
73517;PMS5003;61766;60.318;25.044;2023-10-19T02:58:30;0;0;
73517;PMS5003;61766;60.318;25.044;2023-10-19T03:00:55;1;1;
73517;PMS5003;61766;60.318;25.044;2023-10-19T03:03:20;2;2;
73517;PMS5003;61766;60.318;25.044;2023-10-19T03:05:46;2;2;
73517;PMS5003;61766;60.318;25.044;2023-10-19T03:08:11;2;2;
73517;PMS5003;61766;60.318;25.044;2023-10-19T03:10:36;2;2;
73517;PMS5003;61766;60.318;25.044;2023-10-19T03:13:01;3;3;
73517;PMS5003;61766;60.318;25.044;2023-10-19T03:15:26;2;2;
73517;PMS5003;61766;60.318;25.044;2023-10-19T03:17:51;2;2;
73517;PMS5003;61766;60.318;25.044;2023-10-19T03:20:17;2;1;
73517;PMS5003;61766;60.318;25.044;2023-10-19T03:22:42;3;3;
73517;PMS5003;61766;60.318;25.044;2023-10-19T03:25:07;2;2;
73517;PMS5003;61766;60.318;25.044;2023-10-19T03:27:32;1;1;
73517;PMS5003;61766;60.318;25.044;2023-10-19T03:29:57;2;2;
73517;PMS5003;61766;60.318;25.044;2023-10-19T03:32:23;3;2;
73517;PMS5003;61766;60.318;25.044;2023-10-19T03:34:48;1;1;
73517;PMS5003;61766;60.318;25.044;2023-10-19T03:37:13;1;1;
73517;PMS5003;61766;60.318;25.044;2023-10-19T03:39:38;2;2;
73517;PMS5003;61766;60.318;25.044;2023-10-19T03:42:03;2;1;
73517;PMS5003;61766;60.318;25.044;2023-10-19T03:44:28;1;1;
73517;PMS5003;61766;60.318;25.044;2023-10-19T03:46:54;2;1;
73517;PMS5003;61766;60.318;25.044;2023-10-19T03:49:19;2;2;
73517;PMS5003;61766;60.318;25.044;2023-10-19T03:51:45;2;1;
73517;PMS5003;61766;60.318;25.044;2023-10-19T03:54:10;3;3;
73517;PMS5003;61766;60.318;25.044;2023-10-19T03:56:35;1;1;
73517;PMS5003;61766;60.318;25.044;2023-10-19T03:59:00;2;1;
73517;PMS5003;61766;60.318;25.044;2023-10-19T04:01:25;1;1;
73517;PMS5003;61766;60.318;25.044;2023-10-19T04:03:51;2;1;
73517;PMS5003;61766;60.318;25.044;2023-10-19T04:06:16;3;3;
73517;PMS5003;61766;60.318;25.044;2023-10-19T04:08:41;1;1;
73517;PMS5003;61766;60.318;25.044;2023-10-19T04:11:06;1;1;
73517;PMS5003;61766;60.318;25.044;2023-10-19T04:13:31;1;0;
73517;PMS5003;61766;60.318;25.044;2023-10-19T04:15:57;1;1;
73517;PMS5003;61766;60.318;25.044;2023-10-19T04:18:22;2;2;
73517;PMS5003;61766;60.318;25.044;2023-10-19T04:20:47;1;1;
73517;PMS5003;61766;60.318;25.044;2023-10-19T04:23:12;2;2;
73517;PMS5003;61766;60.318;25.044;2023-10-19T04:25:37;2;2;
73517;PMS5003;61766;60.318;25.044;2023-10-19T04:28:03;2;2;
73517;PMS5003;61766;60.318;25.044;2023-10-19T04:30:28;1;1;
73517;PMS5003;61766;60.318;25.044;2023-10-19T04:32:53;1;1;
73517;PMS5003;61766;60.318;25.044;2023-10-19T04:35:18;3;2;
73517;PMS5003;61766;60.318;25.044;2023-10-19T04:37:43;1;1;
73517;PMS5003;61766;60.318;25.044;2023-10-19T04:40:10;1;1;
73517;PMS5003;61766;60.318;25.044;2023-10-19T04:42:34;2;2;
73517;PMS5003;61766;60.318;25.044;2023-10-19T04:44:59;3;2;
73517;PMS5003;61766;60.318;25.044;2023-10-19T04:47:24;3;2;
73517;PMS5003;61766;60.318;25.044;2023-10-19T04:49:49;4;3;
73517;PMS5003;61766;60.318;25.044;2023-10-19T04:52:15;3;3;
73517;PMS5003;61766;60.318;25.044;2023-10-19T04:54:40;2;2;
73517;PMS5003;61766;60.318;25.044;2023-10-19T04:57:05;2;2;
73517;PMS5003;61766;60.318;25.044;2023-10-19T04:59:30;3;3;
73517;PMS5003;61766;60.318;25.044;2023-10-19T05:01:55;3;3;
73517;PMS5003;61766;60.318;25.044;2023-10-19T05:04:21;3;3;
73517;PMS5003;61766;60.318;25.044;2023-10-19T05:06:46;3;3;
73517;PMS5003;61766;60.318;25.044;2023-10-19T05:09:11;4;3;
73517;PMS5003;61766;60.318;25.044;2023-10-19T05:11:36;3;3;
73517;PMS5003;61766;60.318;25.044;2023-10-19T05:14:01;2;2;
73517;PMS5003;61766;60.318;25.044;2023-10-19T05:16:27;2;2;
73517;PMS5003;61766;60.318;25.044;2023-10-19T05:18:52;2;2;
73517;PMS5003;61766;60.318;25.044;2023-10-19T05:21:17;2;2;
73517;PMS5003;61766;60.318;25.044;2023-10-19T05:23:42;2;2;
73517;PMS5003;61766;60.318;25.044;2023-10-19T05:26:07;2;2;
73517;PMS5003;61766;60.318;25.044;2023-10-19T05:28:33;4;4;
73517;PMS5003;61766;60.318;25.044;2023-10-19T05:30:58;3;2;
73517;PMS5003;61766;60.318;25.044;2023-10-19T05:33:23;3;3;
73517;PMS5003;61766;60.318;25.044;2023-10-19T05:35:48;4;3;
73517;PMS5003;61766;60.318;25.044;2023-10-19T05:38:13;2;2;
73517;PMS5003;61766;60.318;25.044;2023-10-19T05:40:38;2;2;
73517;PMS5003;61766;60.318;25.044;2023-10-19T05:43:04;3;3;
73517;PMS5003;61766;60.318;25.044;2023-10-19T05:45:29;2;2;
73517;PMS5003;61766;60.318;25.044;2023-10-19T05:47:55;1;1;
73517;PMS5003;61766;60.318;25.044;2023-10-19T05:50:19;3;2;
73517;PMS5003;61766;60.318;25.044;2023-10-19T05:52:45;4;4;
73517;PMS5003;61766;60.318;25.044;2023-10-19T05:55:10;3;3;
73517;PMS5003;61766;60.318;25.044;2023-10-19T05:57:35;3;3;
73517;PMS5003;61766;60.318;25.044;2023-10-19T06:00:00;2;2;
73517;PMS5003;61766;60.318;25.044;2023-10-19T06:02:25;2;2;
73517;PMS5003;61766;60.318;25.044;2023-10-19T06:04:51;2;2;
73517;PMS5003;61766;60.318;25.044;2023-10-19T06:07:16;3;3;
73517;PMS5003;61766;60.318;25.044;2023-10-19T06:09:41;4;4;
73517;PMS5003;61766;60.318;25.044;2023-10-19T06:12:06;2;2;
73517;PMS5003;61766;60.318;25.044;2023-10-19T06:14:31;3;3;
73517;PMS5003;61766;60.318;25.044;2023-10-19T06:16:56;2;2;
73517;PMS5003;61766;60.318;25.044;2023-10-19T06:19:22;2;2;
73517;PMS5003;61766;60.318;25.044;2023-10-19T06:21:48;4;4;
73517;PMS5003;61766;60.318;25.044;2023-10-19T06:24:13;2;2;
73517;PMS5003;61766;60.318;25.044;2023-10-19T06:26:38;1;1;
73517;PMS5003;61766;60.318;25.044;2023-10-19T06:29:03;2;1;
73517;PMS5003;61766;60.318;25.044;2023-10-19T06:31:28;4;3;
73517;PMS5003;61766;60.318;25.044;2023-10-19T06:33:53;2;2;
73517;PMS5003;61766;60.318;25.044;2023-10-19T06:36:19;2;2;
73517;PMS5003;61766;60.318;25.044;2023-10-19T06:38:44;3;3;
73517;PMS5003;61766;60.318;25.044;2023-10-19T06:41:10;4;4;
73517;PMS5003;61766;60.318;25.044;2023-10-19T06:43:34;5;4;
73517;PMS5003;61766;60.318;25.044;2023-10-19T06:45:59;2;2;
73517;PMS5003;61766;60.318;25.044;2023-10-19T06:48:25;3;3;
73517;PMS5003;61766;60.318;25.044;2023-10-19T06:50:50;2;2;
73517;PMS5003;61766;60.318;25.044;2023-10-19T06:53:15;4;4;
73517;PMS5003;61766;60.318;25.044;2023-10-19T06:55:40;4;3;
73517;PMS5003;61766;60.318;25.044;2023-10-19T06:58:05;4;3;
73517;PMS5003;61766;60.318;25.044;2023-10-19T07:00:31;4;3;
73517;PMS5003;61766;60.318;25.044;2023-10-19T07:02:57;2;2;
73517;PMS5003;61766;60.318;25.044;2023-10-19T07:05:22;4;3;
73517;PMS5003;61766;60.318;25.044;2023-10-19T07:07:47;4;4;
73517;PMS5003;61766;60.318;25.044;2023-10-19T07:10:13;3;3;
73517;PMS5003;61766;60.318;25.044;2023-10-19T07:12:37;4;3;
73517;PMS5003;61766;60.318;25.044;2023-10-19T07:15:03;4;4;
73517;PMS5003;61766;60.318;25.044;2023-10-19T07:17:28;3;3;
73517;PMS5003;61766;60.318;25.044;2023-10-19T07:19:53;4;3;
73517;PMS5003;61766;60.318;25.044;2023-10-19T07:22:18;5;5;
73517;PMS5003;61766;60.318;25.044;2023-10-19T07:24:44;2;2;
73517;PMS5003;61766;60.318;25.044;2023-10-19T07:27:09;5;3;
73517;PMS5003;61766;60.318;25.044;2023-10-19T07:29:34;4;4;
73517;PMS5003;61766;60.318;25.044;2023-10-19T07:31:59;7;6;
73517;PMS5003;61766;60.318;25.044;2023-10-19T07:34:25;7;7;
73517;PMS5003;61766;60.318;25.044;2023-10-19T07:36:50;4;3;
73517;PMS5003;61766;60.318;25.044;2023-10-19T07:39:16;5;5;
73517;PMS5003;61766;60.318;25.044;2023-10-19T07:41:41;4;4;
73517;PMS5003;61766;60.318;25.044;2023-10-19T07:44:06;5;4;
73517;PMS5003;61766;60.318;25.044;2023-10-19T07:46:31;6;4;
73517;PMS5003;61766;60.318;25.044;2023-10-19T07:48:56;4;4;
73517;PMS5003;61766;60.318;25.044;2023-10-19T07:51:21;4;4;
73517;PMS5003;61766;60.318;25.044;2023-10-19T07:53:47;4;3;
73517;PMS5003;61766;60.318;25.044;2023-10-19T07:56:12;5;4;
73517;PMS5003;61766;60.318;25.044;2023-10-19T07:58:37;6;6;
73517;PMS5003;61766;60.318;25.044;2023-10-19T08:01:03;5;4;
73517;PMS5003;61766;60.318;25.044;2023-10-19T08:03:28;4;4;
73517;PMS5003;61766;60.318;25.044;2023-10-19T08:05:53;5;4;
73517;PMS5003;61766;60.318;25.044;2023-10-19T08:08:18;4;4;
73517;PMS5003;61766;60.318;25.044;2023-10-19T08:10:43;6;5;
73517;PMS5003;61766;60.318;25.044;2023-10-19T08:13:09;4;4;
73517;PMS5003;61766;60.318;25.044;2023-10-19T08:15:34;5;5;
73517;PMS5003;61766;60.318;25.044;2023-10-19T08:17:59;4;4;
73517;PMS5003;61766;60.318;25.044;2023-10-19T08:20:24;5;5;
73517;PMS5003;61766;60.318;25.044;2023-10-19T08:22:50;4;4;
73517;PMS5003;61766;60.318;25.044;2023-10-19T08:25:14;5;5;
73517;PMS5003;61766;60.318;25.044;2023-10-19T08:27:40;5;5;
73517;PMS5003;61766;60.318;25.044;2023-10-19T08:30:06;4;4;
73517;PMS5003;61766;60.318;25.044;2023-10-19T08:32:30;3;3;
73517;PMS5003;61766;60.318;25.044;2023-10-19T08:34:55;4;4;
73517;PMS5003;61766;60.318;25.044;2023-10-19T08:37:20;4;4;
73517;PMS5003;61766;60.318;25.044;2023-10-19T08:39:46;5;5;
73517;PMS5003;61766;60.318;25.044;2023-10-19T08:42:11;4;4;
73517;PMS5003;61766;60.318;25.044;2023-10-19T08:44:36;4;4;
73517;PMS5003;61766;60.318;25.044;2023-10-19T08:47:01;5;5;
73517;PMS5003;61766;60.318;25.044;2023-10-19T08:49:26;6;5;
73517;PMS5003;61766;60.318;25.044;2023-10-19T08:51:51;6;6;
73517;PMS5003;61766;60.318;25.044;2023-10-19T08:54:17;8;7;
73517;PMS5003;61766;60.318;25.044;2023-10-19T08:56:42;5;5;
73517;PMS5003;61766;60.318;25.044;2023-10-19T08:59:07;5;5;
73517;PMS5003;61766;60.318;25.044;2023-10-19T09:01:32;9;9;
73517;PMS5003;61766;60.318;25.044;2023-10-19T09:03:58;5;5;
73517;PMS5003;61766;60.318;25.044;2023-10-19T09:06:23;6;6;
73517;PMS5003;61766;60.318;25.044;2023-10-19T09:08:48;7;7;
73517;PMS5003;61766;60.318;25.044;2023-10-19T09:11:13;8;7;
73517;PMS5003;61766;60.318;25.044;2023-10-19T09:13:44;7;7;
73517;PMS5003;61766;60.318;25.044;2023-10-19T09:16:04;6;5;
73517;PMS5003;61766;60.318;25.044;2023-10-19T09:18:29;4;4;
73517;PMS5003;61766;60.318;25.044;2023-10-19T09:20:54;6;6;
73517;PMS5003;61766;60.318;25.044;2023-10-19T09:23:19;5;5;
73517;PMS5003;61766;60.318;25.044;2023-10-19T09:25:44;5;5;
73517;PMS5003;61766;60.318;25.044;2023-10-19T09:28:09;5;5;
73517;PMS5003;61766;60.318;25.044;2023-10-19T09:30:34;8;7;
73517;PMS5003;61766;60.318;25.044;2023-10-19T09:32:59;5;5;
73517;PMS5003;61766;60.318;25.044;2023-10-19T09:35:25;6;4;
73517;PMS5003;61766;60.318;25.044;2023-10-19T09:37:50;7;7;
73517;PMS5003;61766;60.318;25.044;2023-10-19T09:40:15;5;4;
73517;PMS5003;61766;60.318;25.044;2023-10-19T09:42:40;8;7;
73517;PMS5003;61766;60.318;25.044;2023-10-19T09:45:05;6;6;
73517;PMS5003;61766;60.318;25.044;2023-10-19T09:47:32;7;7;
73517;PMS5003;61766;60.318;25.044;2023-10-19T09:49:56;8;6;
73517;PMS5003;61766;60.318;25.044;2023-10-19T09:52:21;5;4;
73517;PMS5003;61766;60.318;25.044;2023-10-19T09:54:49;6;6;
73517;PMS5003;61766;60.318;25.044;2023-10-19T09:57:13;6;6;
73517;PMS5003;61766;60.318;25.044;2023-10-19T09:59:37;6;6;
73517;PMS5003;61766;60.318;25.044;2023-10-19T10:02:04;8;8;
73517;PMS5003;61766;60.318;25.044;2023-10-19T10:04:30;8;7;
73517;PMS5003;61766;60.318;25.044;2023-10-19T10:06:57;5;5;
73517;PMS5003;61766;60.318;25.044;2023-10-19T10:09:19;6;6;
73517;PMS5003;61766;60.318;25.044;2023-10-19T10:11:44;7;6;
73517;PMS5003;61766;60.318;25.044;2023-10-19T10:16:34;9;8;
73517;PMS5003;61766;60.318;25.044;2023-10-19T10:18:59;9;9;
73517;PMS5003;61766;60.318;25.044;2023-10-19T10:21:24;8;8;
73517;PMS5003;61766;60.318;25.044;2023-10-19T10:23:50;7;7;
73517;PMS5003;61766;60.318;25.044;2023-10-19T10:26:15;8;7;
73517;PMS5003;61766;60.318;25.044;2023-10-19T10:28:40;7;6;
73517;PMS5003;61766;60.318;25.044;2023-10-19T10:31:09;8;7;
73517;PMS5003;61766;60.318;25.044;2023-10-19T10:33:38;7;6;
73517;PMS5003;61766;60.318;25.044;2023-10-19T10:35:55;7;7;
73517;PMS5003;61766;60.318;25.044;2023-10-19T10:38:20;9;8;
73517;PMS5003;61766;60.318;25.044;2023-10-19T10:40:45;6;6;
73517;PMS5003;61766;60.318;25.044;2023-10-19T10:43:11;9;8;
73517;PMS5003;61766;60.318;25.044;2023-10-19T10:45:36;5;5;
73517;PMS5003;61766;60.318;25.044;2023-10-19T10:48:01;8;8;
73517;PMS5003;61766;60.318;25.044;2023-10-19T10:50:27;7;7;
73517;PMS5003;61766;60.318;25.044;2023-10-19T10:52:53;8;8;
73517;PMS5003;61766;60.318;25.044;2023-10-19T10:55:18;9;9;
73517;PMS5003;61766;60.318;25.044;2023-10-19T10:57:43;7;7;
73517;PMS5003;61766;60.318;25.044;2023-10-19T11:00:09;6;6;
73517;PMS5003;61766;60.318;25.044;2023-10-19T11:02:35;8;7;
73517;PMS5003;61766;60.318;25.044;2023-10-19T11:05:00;26;24;
73517;PMS5003;61766;60.318;25.044;2023-10-19T11:07:26;5;5;
73517;PMS5003;61766;60.318;25.044;2023-10-19T11:09:51;8;7;
73517;PMS5003;61766;60.318;25.044;2023-10-19T11:12:16;8;7;
73517;PMS5003;61766;60.318;25.044;2023-10-19T11:17:11;6;6;
73517;PMS5003;61766;60.318;25.044;2023-10-19T11:19:38;4;4;
73517;PMS5003;61766;60.318;25.044;2023-10-19T11:21:56;5;5;
73517;PMS5003;61766;60.318;25.044;2023-10-19T11:24:25;5;5;
73517;PMS5003;61766;60.318;25.044;2023-10-19T11:26:47;5;4;
73517;PMS5003;61766;60.318;25.044;2023-10-19T11:29:16;6;6;
73517;PMS5003;61766;60.318;25.044;2023-10-19T11:31:37;4;4;
73517;PMS5003;61766;60.318;25.044;2023-10-19T11:34:02;7;7;
73517;PMS5003;61766;60.318;25.044;2023-10-19T11:36:27;7;6;
73517;PMS5003;61766;60.318;25.044;2023-10-19T11:38:52;6;6;
73517;PMS5003;61766;60.318;25.044;2023-10-19T11:41:17;7;7;
73517;PMS5003;61766;60.318;25.044;2023-10-19T11:43:43;7;7;
73517;PMS5003;61766;60.318;25.044;2023-10-19T11:46:08;5;5;
73517;PMS5003;61766;60.318;25.044;2023-10-19T11:48:33;6;6;
73517;PMS5003;61766;60.318;25.044;2023-10-19T11:50:59;6;6;
73517;PMS5003;61766;60.318;25.044;2023-10-19T11:53:23;6;6;
73517;PMS5003;61766;60.318;25.044;2023-10-19T11:55:48;7;7;
73517;PMS5003;61766;60.318;25.044;2023-10-19T11:58:13;6;6;
73517;PMS5003;61766;60.318;25.044;2023-10-19T12:00:38;4;4;
73517;PMS5003;61766;60.318;25.044;2023-10-19T12:03:03;5;5;
73517;PMS5003;61766;60.318;25.044;2023-10-19T12:05:28;6;6;
73517;PMS5003;61766;60.318;25.044;2023-10-19T12:07:53;5;5;
73517;PMS5003;61766;60.318;25.044;2023-10-19T12:10:19;4;4;
73517;PMS5003;61766;60.318;25.044;2023-10-19T12:12:44;4;3;
73517;PMS5003;61766;60.318;25.044;2023-10-19T12:15:09;7;6;
73517;PMS5003;61766;60.318;25.044;2023-10-19T12:17:34;3;3;
73517;PMS5003;61766;60.318;25.044;2023-10-19T12:19:59;3;3;
73517;PMS5003;61766;60.318;25.044;2023-10-19T12:22:24;4;4;
73517;PMS5003;61766;60.318;25.044;2023-10-19T12:24:49;4;4;
73517;PMS5003;61766;60.318;25.044;2023-10-19T12:27:14;4;4;
73517;PMS5003;61766;60.318;25.044;2023-10-19T12:29:39;3;3;
73517;PMS5003;61766;60.318;25.044;2023-10-19T12:32:05;5;5;
73517;PMS5003;61766;60.318;25.044;2023-10-19T12:34:29;4;4;
73517;PMS5003;61766;60.318;25.044;2023-10-19T12:36:55;4;4;
73517;PMS5003;61766;60.318;25.044;2023-10-19T12:39:20;5;5;
73517;PMS5003;61766;60.318;25.044;2023-10-19T12:41:45;4;4;
73517;PMS5003;61766;60.318;25.044;2023-10-19T12:44:10;4;4;
73517;PMS5003;61766;60.318;25.044;2023-10-19T12:46:35;4;4;
73517;PMS5003;61766;60.318;25.044;2023-10-19T12:49:00;5;5;
73517;PMS5003;61766;60.318;25.044;2023-10-19T12:51:25;6;5;
73517;PMS5003;61766;60.318;25.044;2023-10-19T12:53:50;5;4;
73517;PMS5003;61766;60.318;25.044;2023-10-19T12:56:16;6;5;
73517;PMS5003;61766;60.318;25.044;2023-10-19T12:58:41;4;4;
73517;PMS5003;61766;60.318;25.044;2023-10-19T13:01:06;4;4;
73517;PMS5003;61766;60.318;25.044;2023-10-19T13:03:31;5;5;
73517;PMS5003;61766;60.318;25.044;2023-10-19T13:05:56;6;5;
73517;PMS5003;61766;60.318;25.044;2023-10-19T13:08:22;5;5;
73517;PMS5003;61766;60.318;25.044;2023-10-19T13:10:47;4;4;
73517;PMS5003;61766;60.318;25.044;2023-10-19T13:13:12;5;5;
73517;PMS5003;61766;60.318;25.044;2023-10-19T13:15:37;6;6;
73517;PMS5003;61766;60.318;25.044;2023-10-19T13:18:02;5;5;
73517;PMS5003;61766;60.318;25.044;2023-10-19T13:20:27;5;4;
73517;PMS5003;61766;60.318;25.044;2023-10-19T13:22:52;5;4;
73517;PMS5003;61766;60.318;25.044;2023-10-19T13:25:17;2;2;
73517;PMS5003;61766;60.318;25.044;2023-10-19T13:27:43;4;4;
73517;PMS5003;61766;60.318;25.044;2023-10-19T13:30:08;4;4;
73517;PMS5003;61766;60.318;25.044;2023-10-19T13:32:33;5;5;
73517;PMS5003;61766;60.318;25.044;2023-10-19T13:34:58;4;4;
73517;PMS5003;61766;60.318;25.044;2023-10-19T13:37:23;5;5;
73517;PMS5003;61766;60.318;25.044;2023-10-19T13:39:48;4;4;
73517;PMS5003;61766;60.318;25.044;2023-10-19T13:42:13;4;4;
73517;PMS5003;61766;60.318;25.044;2023-10-19T13:44:38;2;2;
73517;PMS5003;61766;60.318;25.044;2023-10-19T13:47:04;2;2;
73517;PMS5003;61766;60.318;25.044;2023-10-19T13:49:29;2;2;
73517;PMS5003;61766;60.318;25.044;2023-10-19T13:51:54;3;3;
73517;PMS5003;61766;60.318;25.044;2023-10-19T13:54:19;4;4;
73517;PMS5003;61766;60.318;25.044;2023-10-19T13:56:44;4;4;
73517;PMS5003;61766;60.318;25.044;2023-10-19T13:59:09;4;4;
73517;PMS5003;61766;60.318;25.044;2023-10-19T14:01:35;4;4;
73517;PMS5003;61766;60.318;25.044;2023-10-19T14:04:01;6;5;
73517;PMS5003;61766;60.318;25.044;2023-10-19T14:06:26;6;5;
73517;PMS5003;61766;60.318;25.044;2023-10-19T14:08:51;5;5;
73517;PMS5003;61766;60.318;25.044;2023-10-19T14:11:17;8;7;
73517;PMS5003;61766;60.318;25.044;2023-10-19T14:13:43;7;7;
73517;PMS5003;61766;60.318;25.044;2023-10-19T14:16:08;6;6;
73517;PMS5003;61766;60.318;25.044;2023-10-19T14:18:33;5;5;
73517;PMS5003;61766;60.318;25.044;2023-10-19T14:20:58;6;6;
73517;PMS5003;61766;60.318;25.044;2023-10-19T14:23:23;3;3;
73517;PMS5003;61766;60.318;25.044;2023-10-19T14:25:48;3;3;
73517;PMS5003;61766;60.318;25.044;2023-10-19T14:28:13;4;4;
73517;PMS5003;61766;60.318;25.044;2023-10-19T14:30:39;5;5;
73517;PMS5003;61766;60.318;25.044;2023-10-19T14:33:04;5;5;
73517;PMS5003;61766;60.318;25.044;2023-10-19T14:35:29;3;3;
73517;PMS5003;61766;60.318;25.044;2023-10-19T14:37:54;5;5;
73517;PMS5003;61766;60.318;25.044;2023-10-19T14:40:20;4;4;
73517;PMS5003;61766;60.318;25.044;2023-10-19T14:42:45;4;4;
73517;PMS5003;61766;60.318;25.044;2023-10-19T14:45:10;3;3;
73517;PMS5003;61766;60.318;25.044;2023-10-19T14:47:35;6;4;
73517;PMS5003;61766;60.318;25.044;2023-10-19T14:50:00;5;5;
73517;PMS5003;61766;60.318;25.044;2023-10-19T14:52:25;5;4;
73517;PMS5003;61766;60.318;25.044;2023-10-19T14:54:50;7;6;
73517;PMS5003;61766;60.318;25.044;2023-10-19T14:57:16;4;4;
73517;PMS5003;61766;60.318;25.044;2023-10-19T14:59:41;4;3;
73517;PMS5003;61766;60.318;25.044;2023-10-19T15:02:06;3;3;
73517;PMS5003;61766;60.318;25.044;2023-10-19T15:04:32;2;2;
73517;PMS5003;61766;60.318;25.044;2023-10-19T15:06:57;4;4;
73517;PMS5003;61766;60.318;25.044;2023-10-19T15:09:22;3;3;
73517;PMS5003;61766;60.318;25.044;2023-10-19T15:11:48;4;4;
73517;PMS5003;61766;60.318;25.044;2023-10-19T15:14:13;7;6;
73517;PMS5003;61766;60.318;25.044;2023-10-19T15:16:39;4;4;
73517;PMS5003;61766;60.318;25.044;2023-10-19T15:19:04;6;5;
73517;PMS5003;61766;60.318;25.044;2023-10-19T15:21:29;4;4;
73517;PMS5003;61766;60.318;25.044;2023-10-19T15:23:54;5;5;
73517;PMS5003;61766;60.318;25.044;2023-10-19T15:26:20;2;2;
73517;PMS5003;61766;60.318;25.044;2023-10-19T15:28:45;3;3;
73517;PMS5003;61766;60.318;25.044;2023-10-19T15:31:10;3;3;
73517;PMS5003;61766;60.318;25.044;2023-10-19T15:33:35;5;5;
73517;PMS5003;61766;60.318;25.044;2023-10-19T15:36:00;4;4;
73517;PMS5003;61766;60.318;25.044;2023-10-19T15:38:25;3;3;
73517;PMS5003;61766;60.318;25.044;2023-10-19T15:40:50;4;4;
73517;PMS5003;61766;60.318;25.044;2023-10-19T15:43:16;4;3;
73517;PMS5003;61766;60.318;25.044;2023-10-19T15:45:41;3;2;
73517;PMS5003;61766;60.318;25.044;2023-10-19T15:48:06;2;2;
73517;PMS5003;61766;60.318;25.044;2023-10-19T15:50:31;6;5;
73517;PMS5003;61766;60.318;25.044;2023-10-19T15:52:56;3;3;
73517;PMS5003;61766;60.318;25.044;2023-10-19T15:55:21;3;3;
73517;PMS5003;61766;60.318;25.044;2023-10-19T15:57:46;3;3;
73517;PMS5003;61766;60.318;25.044;2023-10-19T16:00:12;3;3;
73517;PMS5003;61766;60.318;25.044;2023-10-19T16:02:37;2;2;
73517;PMS5003;61766;60.318;25.044;2023-10-19T16:05:02;3;2;
73517;PMS5003;61766;60.318;25.044;2023-10-19T16:07:27;4;4;
73517;PMS5003;61766;60.318;25.044;2023-10-19T16:09:52;5;4;
73517;PMS5003;61766;60.318;25.044;2023-10-19T16:12:17;3;3;
73517;PMS5003;61766;60.318;25.044;2023-10-19T16:14:43;1;1;
73517;PMS5003;61766;60.318;25.044;2023-10-19T16:17:08;3;2;
73517;PMS5003;61766;60.318;25.044;2023-10-19T16:19:33;4;4;
73517;PMS5003;61766;60.318;25.044;2023-10-19T16:21:59;4;3;
73517;PMS5003;61766;60.318;25.044;2023-10-19T16:24:24;3;2;